sensor_id;sensor_type;location;lat;lon;timestamp;P1;durP1;ratioP1;P2;durP2;ratioP2
22935;SDS011;11633;42.716;23.312;2022-09-02T00:01:19;8.98;;;7.13;;
22935;SDS011;11633;42.716;23.312;2022-09-02T00:03:47;8.52;;;6.47;;
22935;SDS011;11633;42.716;23.312;2022-09-02T00:06:13;7.95;;;7.15;;
22935;SDS011;11633;42.716;23.312;2022-09-02T00:08:39;9.15;;;6.60;;
22935;SDS011;11633;42.716;23.312;2022-09-02T00:11:04;8.65;;;7.68;;
22935;SDS011;11633;42.716;23.312;2022-09-02T00:13:30;7.90;;;6.70;;
22935;SDS011;11633;42.716;23.312;2022-09-02T00:15:56;9.18;;;6.70;;
22935;SDS011;11633;42.716;23.312;2022-09-02T00:18:21;7.80;;;6.72;;
22935;SDS011;11633;42.716;23.312;2022-09-02T00:20:49;10.52;;;7.82;;
22935;SDS011;11633;42.716;23.312;2022-09-02T00:23:15;10.48;;;7.60;;
22935;SDS011;11633;42.716;23.312;2022-09-02T00:25:41;8.13;;;7.13;;
22935;SDS011;11633;42.716;23.312;2022-09-02T00:28:08;8.55;;;7.65;;
22935;SDS011;11633;42.716;23.312;2022-09-02T00:30:33;10.23;;;8.52;;
22935;SDS011;11633;42.716;23.312;2022-09-02T00:32:59;10.73;;;7.88;;
22935;SDS011;11633;42.716;23.312;2022-09-02T00:35:25;9.55;;;6.90;;
22935;SDS011;11633;42.716;23.312;2022-09-02T00:37:50;8.45;;;7.55;;
22935;SDS011;11633;42.716;23.312;2022-09-02T00:40:15;10.60;;;7.50;;
22935;SDS011;11633;42.716;23.312;2022-09-02T00:42:41;8.77;;;7.70;;
22935;SDS011;11633;42.716;23.312;2022-09-02T00:45:07;11.43;;;7.60;;
22935;SDS011;11633;42.716;23.312;2022-09-02T00:47:33;9.88;;;7.88;;
22935;SDS011;11633;42.716;23.312;2022-09-02T00:49:58;9.80;;;7.63;;
22935;SDS011;11633;42.716;23.312;2022-09-02T00:52:28;7.72;;;6.90;;
22935;SDS011;11633;42.716;23.312;2022-09-02T00:54:58;11.00;;;7.72;;
22935;SDS011;11633;42.716;23.312;2022-09-02T00:57:26;8.45;;;7.18;;
22935;SDS011;11633;42.716;23.312;2022-09-02T01:02:37;8.80;;;6.53;;
22935;SDS011;11633;42.716;23.312;2022-09-02T01:05:03;8.40;;;6.97;;
22935;SDS011;11633;42.716;23.312;2022-09-02T01:07:30;8.77;;;7.18;;
22935;SDS011;11633;42.716;23.312;2022-09-02T01:09:57;8.10;;;7.22;;
22935;SDS011;11633;42.716;23.312;2022-09-02T01:12:23;14.68;;;11.77;;
22935;SDS011;11633;42.716;23.312;2022-09-02T01:14:51;7.75;;;6.65;;
22935;SDS011;11633;42.716;23.312;2022-09-02T01:17:16;7.80;;;7.00;;
22935;SDS011;11633;42.716;23.312;2022-09-02T01:19:44;7.80;;;6.13;;
22935;SDS011;11633;42.716;23.312;2022-09-02T01:22:30;8.32;;;7.18;;
22935;SDS011;11633;42.716;23.312;2022-09-02T01:24:56;5.65;;;5.03;;
22935;SDS011;11633;42.716;23.312;2022-09-02T01:27:24;6.95;;;5.00;;
22935;SDS011;11633;42.716;23.312;2022-09-02T01:29:52;5.68;;;5.07;;
22935;SDS011;11633;42.716;23.312;2022-09-02T01:32:18;5.25;;;4.45;;
22935;SDS011;11633;42.716;23.312;2022-09-02T01:34:44;6.20;;;4.47;;
22935;SDS011;11633;42.716;23.312;2022-09-02T01:37:09;7.22;;;4.80;;
22935;SDS011;11633;42.716;23.312;2022-09-02T01:39:35;4.85;;;4.35;;
22935;SDS011;11633;42.716;23.312;2022-09-02T01:42:00;5.97;;;4.68;;
22935;SDS011;11633;42.716;23.312;2022-09-02T01:44:26;5.72;;;5.00;;
22935;SDS011;11633;42.716;23.312;2022-09-02T01:46:52;4.57;;;4.10;;
22935;SDS011;11633;42.716;23.312;2022-09-02T01:49:17;6.95;;;4.88;;
22935;SDS011;11633;42.716;23.312;2022-09-02T01:51:42;4.82;;;3.72;;
22935;SDS011;11633;42.716;23.312;2022-09-02T01:54:08;3.90;;;3.42;;
22935;SDS011;11633;42.716;23.312;2022-09-02T01:56:33;3.67;;;2.83;;
22935;SDS011;11633;42.716;23.312;2022-09-02T01:58:58;3.63;;;3.33;;
22935;SDS011;11633;42.716;23.312;2022-09-02T02:01:24;4.00;;;3.38;;
22935;SDS011;11633;42.716;23.312;2022-09-02T02:03:49;3.38;;;3.08;;
22935;SDS011;11633;42.716;23.312;2022-09-02T02:06:15;3.17;;;2.88;;
22935;SDS011;11633;42.716;23.312;2022-09-02T02:08:41;4.45;;;3.38;;
22935;SDS011;11633;42.716;23.312;2022-09-02T02:11:06;3.60;;;2.97;;
22935;SDS011;11633;42.716;23.312;2022-09-02T02:13:32;4.10;;;3.25;;
22935;SDS011;11633;42.716;23.312;2022-09-02T02:15:58;4.75;;;3.92;;
22935;SDS011;11633;42.716;23.312;2022-09-02T02:18:23;5.05;;;3.92;;
22935;SDS011;11633;42.716;23.312;2022-09-02T02:20:48;5.07;;;3.75;;
22935;SDS011;11633;42.716;23.312;2022-09-02T02:23:14;5.70;;;4.40;;
22935;SDS011;11633;42.716;23.312;2022-09-02T02:25:39;4.28;;;3.25;;
22935;SDS011;11633;42.716;23.312;2022-09-02T02:28:05;3.83;;;3.42;;
22935;SDS011;11633;42.716;23.312;2022-09-02T02:30:30;5.78;;;3.95;;
22935;SDS011;11633;42.716;23.312;2022-09-02T02:32:56;6.47;;;3.90;;
22935;SDS011;11633;42.716;23.312;2022-09-02T02:35:21;4.35;;;3.50;;
22935;SDS011;11633;42.716;23.312;2022-09-02T02:37:47;4.78;;;3.88;;
22935;SDS011;11633;42.716;23.312;2022-09-02T02:40:15;6.20;;;4.05;;
22935;SDS011;11633;42.716;23.312;2022-09-02T02:42:40;5.68;;;4.00;;
22935;SDS011;11633;42.716;23.312;2022-09-02T02:45:05;5.20;;;4.10;;
22935;SDS011;11633;42.716;23.312;2022-09-02T02:47:36;5.35;;;4.32;;
22935;SDS011;11633;42.716;23.312;2022-09-02T02:50:01;5.60;;;4.45;;
22935;SDS011;11633;42.716;23.312;2022-09-02T02:52:27;5.18;;;4.07;;
22935;SDS011;11633;42.716;23.312;2022-09-02T02:54:52;4.85;;;4.07;;
22935;SDS011;11633;42.716;23.312;2022-09-02T02:57:17;6.63;;;4.57;;
22935;SDS011;11633;42.716;23.312;2022-09-02T02:59:43;5.30;;;4.28;;
22935;SDS011;11633;42.716;23.312;2022-09-02T03:02:08;6.88;;;4.18;;
22935;SDS011;11633;42.716;23.312;2022-09-02T03:04:33;5.63;;;5.13;;
22935;SDS011;11633;42.716;23.312;2022-09-02T03:06:59;5.28;;;4.78;;
22935;SDS011;11633;42.716;23.312;2022-09-02T03:09:24;5.00;;;4.47;;
22935;SDS011;11633;42.716;23.312;2022-09-02T03:11:49;4.90;;;4.13;;
22935;SDS011;11633;42.716;23.312;2022-09-02T03:14:15;5.53;;;4.60;;
22935;SDS011;11633;42.716;23.312;2022-09-02T03:16:41;5.30;;;3.95;;
22935;SDS011;11633;42.716;23.312;2022-09-02T03:19:07;5.70;;;4.80;;
22935;SDS011;11633;42.716;23.312;2022-09-02T03:21:32;6.03;;;4.43;;
22935;SDS011;11633;42.716;23.312;2022-09-02T03:23:57;6.18;;;4.63;;
22935;SDS011;11633;42.716;23.312;2022-09-02T03:26:23;5.95;;;4.57;;
22935;SDS011;11633;42.716;23.312;2022-09-02T03:28:50;7.72;;;4.97;;
22935;SDS011;11633;42.716;23.312;2022-09-02T03:31:19;5.00;;;4.07;;
22935;SDS011;11633;42.716;23.312;2022-09-02T03:33:48;5.60;;;4.60;;
22935;SDS011;11633;42.716;23.312;2022-09-02T03:36:24;5.95;;;4.57;;
22935;SDS011;11633;42.716;23.312;2022-09-02T03:38:49;5.78;;;4.45;;
22935;SDS011;11633;42.716;23.312;2022-09-02T03:41:14;5.97;;;4.80;;
22935;SDS011;11633;42.716;23.312;2022-09-02T03:43:39;6.32;;;5.18;;
22935;SDS011;11633;42.716;23.312;2022-09-02T03:46:05;5.47;;;4.93;;
22935;SDS011;11633;42.716;23.312;2022-09-02T03:48:30;6.57;;;5.30;;
22935;SDS011;11633;42.716;23.312;2022-09-02T03:50:55;6.00;;;4.85;;
22935;SDS011;11633;42.716;23.312;2022-09-02T03:53:21;6.20;;;5.00;;
22935;SDS011;11633;42.716;23.312;2022-09-02T03:55:46;6.50;;;5.32;;
22935;SDS011;11633;42.716;23.312;2022-09-02T03:58:11;5.80;;;5.00;;
22935;SDS011;11633;42.716;23.312;2022-09-02T04:00:37;6.93;;;5.45;;
22935;SDS011;11633;42.716;23.312;2022-09-02T04:03:03;6.72;;;5.38;;
22935;SDS011;11633;42.716;23.312;2022-09-02T04:05:28;7.68;;;5.32;;
22935;SDS011;11633;42.716;23.312;2022-09-02T04:07:54;6.45;;;4.93;;
22935;SDS011;11633;42.716;23.312;2022-09-02T04:10:21;6.15;;;4.90;;
22935;SDS011;11633;42.716;23.312;2022-09-02T04:12:46;9.07;;;5.97;;
22935;SDS011;11633;42.716;23.312;2022-09-02T04:15:12;12.93;;;9.52;;
22935;SDS011;11633;42.716;23.312;2022-09-02T04:17:38;6.78;;;5.45;;
22935;SDS011;11633;42.716;23.312;2022-09-02T04:20:04;6.72;;;5.50;;
22935;SDS011;11633;42.716;23.312;2022-09-02T04:22:30;6.68;;;5.28;;
22935;SDS011;11633;42.716;23.312;2022-09-02T04:24:55;7.80;;;5.78;;
22935;SDS011;11633;42.716;23.312;2022-09-02T04:27:20;5.55;;;5.00;;
22935;SDS011;11633;42.716;23.312;2022-09-02T04:29:46;7.15;;;5.70;;
22935;SDS011;11633;42.716;23.312;2022-09-02T04:32:11;8.07;;;6.55;;
22935;SDS011;11633;42.716;23.312;2022-09-02T04:34:36;8.07;;;6.05;;
22935;SDS011;11633;42.716;23.312;2022-09-02T04:37:01;8.07;;;6.10;;
22935;SDS011;11633;42.716;23.312;2022-09-02T04:39:27;6.72;;;5.55;;
22935;SDS011;11633;42.716;23.312;2022-09-02T04:41:52;6.93;;;5.53;;
22935;SDS011;11633;42.716;23.312;2022-09-02T04:44:17;6.90;;;5.38;;
22935;SDS011;11633;42.716;23.312;2022-09-02T04:46:43;7.18;;;5.65;;
22935;SDS011;11633;42.716;23.312;2022-09-02T04:49:08;6.72;;;5.32;;
22935;SDS011;11633;42.716;23.312;2022-09-02T04:51:33;6.25;;;5.47;;
22935;SDS011;11633;42.716;23.312;2022-09-02T04:53:58;9.18;;;5.93;;
22935;SDS011;11633;42.716;23.312;2022-09-02T04:56:25;6.95;;;5.07;;
22935;SDS011;11633;42.716;23.312;2022-09-02T04:58:51;5.88;;;4.93;;
22935;SDS011;11633;42.716;23.312;2022-09-02T05:01:21;6.35;;;5.05;;
22935;SDS011;11633;42.716;23.312;2022-09-02T05:03:47;5.32;;;4.82;;
22935;SDS011;11633;42.716;23.312;2022-09-02T05:06:13;6.40;;;5.05;;
22935;SDS011;11633;42.716;23.312;2022-09-02T05:08:39;6.03;;;4.88;;
22935;SDS011;11633;42.716;23.312;2022-09-02T05:11:10;5.90;;;5.00;;
22935;SDS011;11633;42.716;23.312;2022-09-02T05:13:37;7.57;;;5.20;;
22935;SDS011;11633;42.716;23.312;2022-09-02T05:16:03;5.90;;;4.85;;
22935;SDS011;11633;42.716;23.312;2022-09-02T05:18:28;7.85;;;5.18;;
22935;SDS011;11633;42.716;23.312;2022-09-02T05:20:54;6.22;;;4.57;;
22935;SDS011;11633;42.716;23.312;2022-09-02T05:23:19;6.82;;;5.28;;
22935;SDS011;11633;42.716;23.312;2022-09-02T05:25:44;10.43;;;5.82;;
22935;SDS011;11633;42.716;23.312;2022-09-02T05:28:10;8.32;;;5.63;;
22935;SDS011;11633;42.716;23.312;2022-09-02T05:30:36;6.95;;;5.85;;
22935;SDS011;11633;42.716;23.312;2022-09-02T05:33:02;7.45;;;5.57;;
22935;SDS011;11633;42.716;23.312;2022-09-02T05:35:27;6.70;;;5.63;;
22935;SDS011;11633;42.716;23.312;2022-09-02T05:37:53;6.82;;;5.50;;
22935;SDS011;11633;42.716;23.312;2022-09-02T05:40:18;7.05;;;5.78;;
22935;SDS011;11633;42.716;23.312;2022-09-02T05:42:43;8.60;;;4.88;;
22935;SDS011;11633;42.716;23.312;2022-09-02T05:45:09;6.28;;;5.53;;
22935;SDS011;11633;42.716;23.312;2022-09-02T05:47:35;9.18;;;5.35;;
22935;SDS011;11633;42.716;23.312;2022-09-02T05:50:00;6.57;;;5.82;;
22935;SDS011;11633;42.716;23.312;2022-09-02T05:52:26;7.35;;;5.53;;
22935;SDS011;11633;42.716;23.312;2022-09-02T05:54:51;7.40;;;5.70;;
22935;SDS011;11633;42.716;23.312;2022-09-02T05:57:18;6.38;;;5.22;;
22935;SDS011;11633;42.716;23.312;2022-09-02T05:59:43;6.43;;;5.22;;
22935;SDS011;11633;42.716;23.312;2022-09-02T06:02:10;7.20;;;5.70;;
22935;SDS011;11633;42.716;23.312;2022-09-02T06:04:39;9.80;;;5.80;;
22935;SDS011;11633;42.716;23.312;2022-09-02T06:07:05;7.93;;;6.43;;
22935;SDS011;11633;42.716;23.312;2022-09-02T06:09:30;7.13;;;5.65;;
22935;SDS011;11633;42.716;23.312;2022-09-02T06:11:55;7.70;;;5.75;;
22935;SDS011;11633;42.716;23.312;2022-09-02T06:14:21;9.73;;;5.63;;
22935;SDS011;11633;42.716;23.312;2022-09-02T06:16:49;7.05;;;5.93;;
22935;SDS011;11633;42.716;23.312;2022-09-02T06:19:14;6.93;;;5.70;;
22935;SDS011;11633;42.716;23.312;2022-09-02T06:21:40;7.03;;;5.25;;
22935;SDS011;11633;42.716;23.312;2022-09-02T06:24:07;6.00;;;5.10;;
22935;SDS011;11633;42.716;23.312;2022-09-02T06:26:33;8.57;;;6.13;;
22935;SDS011;11633;42.716;23.312;2022-09-02T06:28:58;9.35;;;5.38;;
22935;SDS011;11633;42.716;23.312;2022-09-02T06:31:24;7.75;;;5.25;;
22935;SDS011;11633;42.716;23.312;2022-09-02T06:33:52;6.13;;;5.30;;
22935;SDS011;11633;42.716;23.312;2022-09-02T06:36:18;8.10;;;5.95;;
22935;SDS011;11633;42.716;23.312;2022-09-02T06:38:45;8.23;;;6.25;;
22935;SDS011;11633;42.716;23.312;2022-09-02T06:41:11;9.20;;;6.88;;
22935;SDS011;11633;42.716;23.312;2022-09-02T06:43:37;7.72;;;6.28;;
22935;SDS011;11633;42.716;23.312;2022-09-02T06:46:02;7.28;;;5.30;;
22935;SDS011;11633;42.716;23.312;2022-09-02T06:48:27;8.05;;;5.78;;
22935;SDS011;11633;42.716;23.312;2022-09-02T06:50:53;5.85;;;5.15;;
22935;SDS011;11633;42.716;23.312;2022-09-02T06:53:19;6.00;;;5.40;;
22935;SDS011;11633;42.716;23.312;2022-09-02T06:55:44;7.82;;;5.20;;
22935;SDS011;11633;42.716;23.312;2022-09-02T06:58:10;6.55;;;5.43;;
22935;SDS011;11633;42.716;23.312;2022-09-02T07:00:36;7.13;;;5.72;;
22935;SDS011;11633;42.716;23.312;2022-09-02T07:03:01;6.72;;;5.45;;
22935;SDS011;11633;42.716;23.312;2022-09-02T07:05:45;6.97;;;4.88;;
22935;SDS011;11633;42.716;23.312;2022-09-02T07:08:11;6.97;;;4.78;;
22935;SDS011;11633;42.716;23.312;2022-09-02T07:10:37;5.03;;;4.50;;
22935;SDS011;11633;42.716;23.312;2022-09-02T07:13:03;5.55;;;4.63;;
22935;SDS011;11633;42.716;23.312;2022-09-02T07:15:28;4.75;;;4.28;;
22935;SDS011;11633;42.716;23.312;2022-09-02T07:17:53;6.88;;;4.35;;
22935;SDS011;11633;42.716;23.312;2022-09-02T07:20:19;5.30;;;4.00;;
22935;SDS011;11633;42.716;23.312;2022-09-02T07:22:44;5.00;;;3.90;;
22935;SDS011;11633;42.716;23.312;2022-09-02T07:25:09;8.32;;;4.60;;
22935;SDS011;11633;42.716;23.312;2022-09-02T07:27:34;5.60;;;4.45;;
22935;SDS011;11633;42.716;23.312;2022-09-02T07:30:00;6.13;;;4.53;;
22935;SDS011;11633;42.716;23.312;2022-09-02T07:32:25;5.72;;;4.80;;
22935;SDS011;11633;42.716;23.312;2022-09-02T07:34:50;7.00;;;4.78;;
22935;SDS011;11633;42.716;23.312;2022-09-02T07:37:16;4.82;;;4.35;;
22935;SDS011;11633;42.716;23.312;2022-09-02T07:39:41;5.70;;;5.03;;
22935;SDS011;11633;42.716;23.312;2022-09-02T07:42:08;5.03;;;4.53;;
22935;SDS011;11633;42.716;23.312;2022-09-02T07:44:33;6.65;;;4.80;;
22935;SDS011;11633;42.716;23.312;2022-09-02T07:46:58;6.22;;;5.07;;
22935;SDS011;11633;42.716;23.312;2022-09-02T07:49:23;4.80;;;3.72;;
22935;SDS011;11633;42.716;23.312;2022-09-02T07:51:49;7.05;;;4.90;;
22935;SDS011;11633;42.716;23.312;2022-09-02T07:54:15;6.72;;;4.28;;
22935;SDS011;11633;42.716;23.312;2022-09-02T07:56:42;4.88;;;3.78;;
22935;SDS011;11633;42.716;23.312;2022-09-02T07:59:08;4.93;;;3.97;;
22935;SDS011;11633;42.716;23.312;2022-09-02T08:01:33;5.38;;;4.35;;
22935;SDS011;11633;42.716;23.312;2022-09-02T08:03:59;5.20;;;4.65;;
22935;SDS011;11633;42.716;23.312;2022-09-02T08:06:24;4.95;;;4.00;;
22935;SDS011;11633;42.716;23.312;2022-09-02T08:08:51;4.32;;;3.92;;
22935;SDS011;11633;42.716;23.312;2022-09-02T08:11:17;5.15;;;3.72;;
22935;SDS011;11633;42.716;23.312;2022-09-02T08:13:42;4.97;;;4.15;;
22935;SDS011;11633;42.716;23.312;2022-09-02T08:16:07;4.78;;;3.55;;
22935;SDS011;11633;42.716;23.312;2022-09-02T08:18:33;3.85;;;3.30;;
22935;SDS011;11633;42.716;23.312;2022-09-02T08:20:58;3.90;;;3.22;;
22935;SDS011;11633;42.716;23.312;2022-09-02T08:23:23;4.03;;;3.00;;
22935;SDS011;11633;42.716;23.312;2022-09-02T08:25:48;5.72;;;3.83;;
22935;SDS011;11633;42.716;23.312;2022-09-02T08:28:14;3.58;;;3.28;;
22935;SDS011;11633;42.716;23.312;2022-09-02T08:30:39;4.32;;;3.83;;
22935;SDS011;11633;42.716;23.312;2022-09-02T08:33:05;4.10;;;3.65;;
22935;SDS011;11633;42.716;23.312;2022-09-02T08:35:30;6.25;;;3.58;;
22935;SDS011;11633;42.716;23.312;2022-09-02T08:37:56;5.15;;;4.10;;
22935;SDS011;11633;42.716;23.312;2022-09-02T08:40:22;5.50;;;4.93;;
22935;SDS011;11633;42.716;23.312;2022-09-02T08:42:52;4.80;;;4.25;;
22935;SDS011;11633;42.716;23.312;2022-09-02T08:45:26;4.43;;;3.88;;
22935;SDS011;11633;42.716;23.312;2022-09-02T08:47:57;4.40;;;3.85;;
22935;SDS011;11633;42.716;23.312;2022-09-02T08:50:26;6.28;;;3.58;;
22935;SDS011;11633;42.716;23.312;2022-09-02T08:55:18;3.55;;;3.25;;
22935;SDS011;11633;42.716;23.312;2022-09-02T08:57:45;4.80;;;3.58;;
22935;SDS011;11633;42.716;23.312;2022-09-02T09:00:10;5.38;;;3.97;;
22935;SDS011;11633;42.716;23.312;2022-09-02T09:20:02;4.63;;;3.90;;
22935;SDS011;11633;42.716;23.312;2022-09-02T09:22:31;3.45;;;3.03;;
22935;SDS011;11633;42.716;23.312;2022-09-02T09:24:57;4.00;;;3.55;;
22935;SDS011;11633;42.716;23.312;2022-09-02T09:27:22;3.47;;;3.13;;
22935;SDS011;11633;42.716;23.312;2022-09-02T09:29:48;4.50;;;3.38;;
22935;SDS011;11633;42.716;23.312;2022-09-02T09:32:33;6.50;;;4.25;;
22935;SDS011;11633;42.716;23.312;2022-09-02T09:37:45;4.30;;;3.90;;
22935;SDS011;11633;42.716;23.312;2022-09-02T09:40:19;4.93;;;4.38;;
22935;SDS011;11633;42.716;23.312;2022-09-02T09:42:46;3.65;;;3.20;;
22935;SDS011;11633;42.716;23.312;2022-09-02T09:45:18;4.25;;;3.85;;
22935;SDS011;11633;42.716;23.312;2022-09-02T09:47:54;5.47;;;4.10;;
22935;SDS011;11633;42.716;23.312;2022-09-02T09:50:31;5.20;;;3.40;;
22935;SDS011;11633;42.716;23.312;2022-09-02T09:53:12;4.78;;;4.25;;
22935;SDS011;11633;42.716;23.312;2022-09-02T09:55:43;4.30;;;3.90;;
22935;SDS011;11633;42.716;23.312;2022-09-02T09:58:13;4.13;;;3.83;;
22935;SDS011;11633;42.716;23.312;2022-09-02T10:00:39;5.18;;;4.68;;
22935;SDS011;11633;42.716;23.312;2022-09-02T10:03:05;3.92;;;3.55;;
22935;SDS011;11633;42.716;23.312;2022-09-02T10:05:32;4.93;;;4.22;;
22935;SDS011;11633;42.716;23.312;2022-09-02T10:07:59;4.93;;;4.22;;
22935;SDS011;11633;42.716;23.312;2022-09-02T10:10:26;5.80;;;4.18;;
22935;SDS011;11633;42.716;23.312;2022-09-02T10:12:53;4.20;;;3.80;;
22935;SDS011;11633;42.716;23.312;2022-09-02T10:15:33;4.32;;;3.92;;
22935;SDS011;11633;42.716;23.312;2022-09-02T10:18:08;6.28;;;4.20;;
22935;SDS011;11633;42.716;23.312;2022-09-02T10:26:05;6.03;;;3.70;;
22935;SDS011;11633;42.716;23.312;2022-09-02T10:33:45;4.77;;;4.10;;
22935;SDS011;11633;42.716;23.312;2022-09-02T10:38:52;4.95;;;4.55;;
22935;SDS011;11633;42.716;23.312;2022-09-02T10:44:04;5.20;;;4.68;;
22935;SDS011;11633;42.716;23.312;2022-09-02T10:49:23;5.28;;;4.78;;
22935;SDS011;11633;42.716;23.312;2022-09-02T10:54:23;4.80;;;4.23;;
22935;SDS011;11633;42.716;23.312;2022-09-02T10:56:58;4.93;;;4.43;;
22935;SDS011;11633;42.716;23.312;2022-09-02T10:59:28;5.60;;;4.90;;
22935;SDS011;11633;42.716;23.312;2022-09-02T11:02:05;5.90;;;4.55;;
22935;SDS011;11633;42.716;23.312;2022-09-02T11:06:56;5.73;;;4.90;;
22935;SDS011;11633;42.716;23.312;2022-09-02T11:11:56;5.43;;;4.30;;
22935;SDS011;11633;42.716;23.312;2022-09-02T11:19:54;5.72;;;5.10;;
22935;SDS011;11633;42.716;23.312;2022-09-02T11:22:26;5.35;;;4.85;;
22935;SDS011;11633;42.716;23.312;2022-09-02T11:30:19;5.60;;;5.10;;
22935;SDS011;11633;42.716;23.312;2022-09-02T11:32:53;6.63;;;5.00;;
22935;SDS011;11633;42.716;23.312;2022-09-02T11:35:23;5.70;;;4.82;;
22935;SDS011;11633;42.716;23.312;2022-09-02T11:40:30;6.25;;;5.65;;
22935;SDS011;11633;42.716;23.312;2022-09-02T11:43:00;6.68;;;5.40;;
22935;SDS011;11633;42.716;23.312;2022-09-02T11:50:41;6.37;;;5.47;;
22935;SDS011;11633;42.716;23.312;2022-09-02T11:53:27;7.07;;;6.25;;
22935;SDS011;11633;42.716;23.312;2022-09-02T12:03:21;8.50;;;6.50;;
22935;SDS011;11633;42.716;23.312;2022-09-02T12:05:48;6.85;;;5.82;;
22935;SDS011;11633;42.716;23.312;2022-09-02T12:10:59;7.22;;;6.28;;
22935;SDS011;11633;42.716;23.312;2022-09-02T12:18:37;6.72;;;5.85;;
22935;SDS011;11633;42.716;23.312;2022-09-02T12:21:03;7.10;;;6.40;;
22935;SDS011;11633;42.716;23.312;2022-09-02T12:26:17;7.55;;;6.20;;
22935;SDS011;11633;42.716;23.312;2022-09-02T12:28:43;6.95;;;6.25;;
22935;SDS011;11633;42.716;23.312;2022-09-02T12:31:13;7.45;;;6.43;;
22935;SDS011;11633;42.716;23.312;2022-09-02T12:33:46;9.35;;;6.50;;
22935;SDS011;11633;42.716;23.312;2022-09-02T12:41:44;6.57;;;5.90;;
22935;SDS011;11633;42.716;23.312;2022-09-02T12:44:21;8.38;;;7.45;;
22935;SDS011;11633;42.716;23.312;2022-09-02T12:46:58;7.75;;;6.78;;
22935;SDS011;11633;42.716;23.312;2022-09-02T12:52:10;9.05;;;7.18;;
22935;SDS011;11633;42.716;23.312;2022-09-02T12:57:11;7.93;;;6.28;;
22935;SDS011;11633;42.716;23.312;2022-09-02T12:59:40;7.82;;;6.45;;
22935;SDS011;11633;42.716;23.312;2022-09-02T13:07:06;12.23;;;7.40;;
22935;SDS011;11633;42.716;23.312;2022-09-02T13:22:37;8.40;;;7.13;;
22935;SDS011;11633;42.716;23.312;2022-09-02T13:25:13;7.43;;;6.25;;
22935;SDS011;11633;42.716;23.312;2022-09-02T13:30:12;7.63;;;6.83;;
22935;SDS011;11633;42.716;23.312;2022-09-02T13:32:38;8.48;;;7.47;;
22935;SDS011;11633;42.716;23.312;2022-09-02T13:35:04;8.95;;;7.63;;
22935;SDS011;11633;42.716;23.312;2022-09-02T13:39:56;8.02;;;7.22;;
22935;SDS011;11633;42.716;23.312;2022-09-02T13:42:22;8.05;;;6.75;;
22935;SDS011;11633;42.716;23.312;2022-09-02T13:44:48;8.70;;;7.25;;
22935;SDS011;11633;42.716;23.312;2022-09-02T13:47:14;9.27;;;7.20;;
22935;SDS011;11633;42.716;23.312;2022-09-02T13:49:40;10.05;;;7.15;;
22935;SDS011;11633;42.716;23.312;2022-09-02T13:52:06;8.48;;;7.20;;
22935;SDS011;11633;42.716;23.312;2022-09-02T13:54:36;11.35;;;8.88;;
22935;SDS011;11633;42.716;23.312;2022-09-02T13:57:11;10.07;;;8.48;;
22935;SDS011;11633;42.716;23.312;2022-09-02T13:59:45;13.80;;;10.23;;
22935;SDS011;11633;42.716;23.312;2022-09-02T14:05:08;16.85;;;10.98;;
22935;SDS011;11633;42.716;23.312;2022-09-02T14:07:42;16.55;;;10.60;;
22935;SDS011;11633;42.716;23.312;2022-09-02T14:10:10;23.27;;;15.23;;
22935;SDS011;11633;42.716;23.312;2022-09-02T14:12:37;15.05;;;10.85;;
22935;SDS011;11633;42.716;23.312;2022-09-02T14:15:03;13.55;;;10.60;;
22935;SDS011;11633;42.716;23.312;2022-09-02T14:17:29;15.75;;;10.95;;
22935;SDS011;11633;42.716;23.312;2022-09-02T14:20:16;16.58;;;11.70;;
22935;SDS011;11633;42.716;23.312;2022-09-02T14:22:40;18.02;;;11.52;;
22935;SDS011;11633;42.716;23.312;2022-09-02T14:25:07;20.85;;;11.43;;
22935;SDS011;11633;42.716;23.312;2022-09-02T14:27:32;16.15;;;11.85;;
22935;SDS011;11633;42.716;23.312;2022-09-02T14:29:57;16.80;;;11.40;;
22935;SDS011;11633;42.716;23.312;2022-09-02T14:32:23;13.02;;;9.85;;
22935;SDS011;11633;42.716;23.312;2022-09-02T14:35:07;10.98;;;7.90;;
22935;SDS011;11633;42.716;23.312;2022-09-02T14:37:33;10.82;;;7.00;;
22935;SDS011;11633;42.716;23.312;2022-09-02T14:42:23;7.60;;;5.30;;
22935;SDS011;11633;42.716;23.312;2022-09-02T14:44:49;7.63;;;5.10;;
22935;SDS011;11633;42.716;23.312;2022-09-02T14:47:15;6.63;;;4.43;;
22935;SDS011;11633;42.716;23.312;2022-09-02T14:49:45;6.50;;;4.70;;
22935;SDS011;11633;42.716;23.312;2022-09-02T14:59:52;6.82;;;4.20;;
22935;SDS011;11633;42.716;23.312;2022-09-02T15:02:22;7.30;;;4.88;;
22935;SDS011;11633;42.716;23.312;2022-09-02T15:04:47;6.50;;;4.82;;
22935;SDS011;11633;42.716;23.312;2022-09-02T15:07:13;8.95;;;4.72;;
22935;SDS011;11633;42.716;23.312;2022-09-02T15:09:38;5.63;;;4.72;;
22935;SDS011;11633;42.716;23.312;2022-09-02T15:12:04;7.65;;;5.45;;
22935;SDS011;11633;42.716;23.312;2022-09-02T15:14:30;6.57;;;5.65;;
22935;SDS011;11633;42.716;23.312;2022-09-02T15:16:56;7.78;;;6.18;;
22935;SDS011;11633;42.716;23.312;2022-09-02T15:19:22;7.90;;;5.70;;
22935;SDS011;11633;42.716;23.312;2022-09-02T15:21:47;7.63;;;5.90;;
22935;SDS011;11633;42.716;23.312;2022-09-02T15:24:12;6.30;;;4.88;;
22935;SDS011;11633;42.716;23.312;2022-09-02T15:26:38;7.15;;;5.72;;
22935;SDS011;11633;42.716;23.312;2022-09-02T15:29:03;8.85;;;6.18;;
22935;SDS011;11633;42.716;23.312;2022-09-02T15:31:29;8.57;;;6.22;;
22935;SDS011;11633;42.716;23.312;2022-09-02T15:33:54;6.78;;;5.80;;
22935;SDS011;11633;42.716;23.312;2022-09-02T15:36:20;8.00;;;6.38;;
22935;SDS011;11633;42.716;23.312;2022-09-02T15:38:45;9.07;;;6.25;;
22935;SDS011;11633;42.716;23.312;2022-09-02T15:41:21;8.13;;;6.47;;
22935;SDS011;11633;42.716;23.312;2022-09-02T15:43:47;8.73;;;7.43;;
22935;SDS011;11633;42.716;23.312;2022-09-02T15:46:19;7.78;;;6.65;;
22935;SDS011;11633;42.716;23.312;2022-09-02T15:48:45;9.23;;;6.22;;
22935;SDS011;11633;42.716;23.312;2022-09-02T15:51:11;10.13;;;5.80;;
22935;SDS011;11633;42.716;23.312;2022-09-02T15:53:36;8.80;;;6.93;;
22935;SDS011;11633;42.716;23.312;2022-09-02T15:56:02;8.93;;;7.03;;
22935;SDS011;11633;42.716;23.312;2022-09-02T15:58:27;10.60;;;7.55;;
22935;SDS011;11633;42.716;23.312;2022-09-02T16:00:52;8.05;;;5.97;;
22935;SDS011;11633;42.716;23.312;2022-09-02T16:03:17;9.30;;;7.25;;
22935;SDS011;11633;42.716;23.312;2022-09-02T16:05:43;10.63;;;7.47;;
22935;SDS011;11633;42.716;23.312;2022-09-02T16:08:08;8.30;;;6.70;;
22935;SDS011;11633;42.716;23.312;2022-09-02T16:10:35;8.77;;;6.40;;
22935;SDS011;11633;42.716;23.312;2022-09-02T16:13:00;7.07;;;5.53;;
22935;SDS011;11633;42.716;23.312;2022-09-02T16:15:26;5.85;;;4.97;;
22935;SDS011;11633;42.716;23.312;2022-09-02T16:17:53;5.80;;;4.55;;
22935;SDS011;11633;42.716;23.312;2022-09-02T16:20:18;4.75;;;3.70;;
22935;SDS011;11633;42.716;23.312;2022-09-02T16:22:43;6.13;;;3.88;;
22935;SDS011;11633;42.716;23.312;2022-09-02T16:25:09;9.07;;;3.65;;
22935;SDS011;11633;42.716;23.312;2022-09-02T16:27:34;4.47;;;3.78;;
22935;SDS011;11633;42.716;23.312;2022-09-02T16:30:18;4.18;;;3.42;;
22935;SDS011;11633;42.716;23.312;2022-09-02T16:32:44;4.80;;;3.70;;
22935;SDS011;11633;42.716;23.312;2022-09-02T16:35:09;3.60;;;2.60;;
22935;SDS011;11633;42.716;23.312;2022-09-02T16:37:34;4.15;;;3.05;;
22935;SDS011;11633;42.716;23.312;2022-09-02T16:39:59;5.47;;;2.70;;
22935;SDS011;11633;42.716;23.312;2022-09-02T16:42:25;4.10;;;3.35;;
22935;SDS011;11633;42.716;23.312;2022-09-02T16:44:50;6.05;;;2.92;;
22935;SDS011;11633;42.716;23.312;2022-09-02T16:47:15;3.97;;;2.63;;